Yaupon Beach, North Carolina
Current Conditions -  °F | °C
As of 1:15 AM on Monday 22 Dec 2014 (Local Time) from KSUT Reporting Station
Light Rain Light Rain  
Wind Chill: 41°   Ceiling: 700
Heat Index: 46°   Visibility: 5mi
Dew Point: 45°   Wind: 10mph
Humidity: 95%   Direction: 50°NE
Pressure: 30.1"   Gusts: 16mph
Location:  33.9216°N, 78.1244°W
Report Text: KSUT 220615Z AUTO 05009G14KT 5SM -RA OVC007 08/07 A3010 RMK AO2 P0001 T00800072
Loading
Personal Weather Stations






























Interactive Weather Map New forecast layout! Learn more

10-Day Weather Forecast

Advertisements
Track Severe Weather on mobile